createdAt,value
2022-08-17T00:02:26.984Z,9.68
2022-08-17T00:04:55.491Z,8.70
2022-08-17T00:07:23.116Z,9.57
2022-08-17T00:09:50.503Z,9.30
2022-08-17T00:12:42.827Z,8.68
2022-08-17T00:15:08.246Z,8.93
2022-08-17T00:17:39.003Z,9.48
2022-08-17T00:20:07.034Z,8.77
2022-08-17T00:22:36.676Z,9.25
2022-08-17T00:25:08.698Z,8.73
2022-08-17T00:27:36.921Z,9.23
2022-08-17T00:30:08.741Z,8.15
2022-08-17T00:33:23.445Z,9.20
2022-08-17T00:35:28.934Z,7.97
2022-08-17T00:37:56.291Z,8.40
2022-08-17T00:40:24.710Z,9.02
2022-08-17T00:42:53.444Z,7.68
2022-08-17T00:45:22.519Z,8.30
2022-08-17T00:47:49.788Z,8.38
2022-08-17T00:50:19.487Z,8.13
2022-08-17T00:52:56.002Z,9.13
2022-08-17T00:55:25.274Z,8.27
2022-08-17T00:57:58.399Z,9.15
2022-08-17T01:00:34.143Z,8.77
2022-08-17T01:03:06.399Z,9.30
2022-08-17T01:05:38.292Z,9.25
2022-08-17T01:08:13.600Z,8.63
2022-08-17T01:10:57.296Z,9.77
2022-08-17T01:13:41.225Z,8.82
2022-08-17T01:16:11.994Z,9.30
2022-08-17T01:18:39.856Z,9.18
2022-08-17T01:21:19.363Z,9.95
2022-08-17T01:23:46.731Z,9.90
2022-08-17T01:26:13.998Z,9.63
2022-08-17T01:28:54.223Z,9.43
2022-08-17T01:31:25.466Z,10.43
2022-08-17T01:33:52.927Z,10.65
2022-08-17T01:36:21.107Z,10.68
2022-08-17T01:38:48.589Z,10.48
2022-08-17T01:41:16.805Z,10.25
2022-08-17T01:44:01.564Z,10.68
2022-08-17T01:46:32.167Z,10.48
2022-08-17T01:49:00.326Z,11.40
2022-08-17T01:51:32.734Z,10.55
2022-08-17T01:54:11.308Z,10.98
2022-08-17T01:56:42.087Z,11.65
2022-08-17T01:59:10.749Z,10.70
2022-08-17T02:01:38.845Z,10.25
2022-08-17T02:04:07.610Z,10.55
2022-08-17T02:06:52.859Z,11.15
2022-08-17T02:09:29.883Z,10.55
2022-08-17T02:12:00.027Z,11.32
2022-08-17T02:14:47.431Z,12.13
2022-08-17T02:17:14.885Z,10.60
2022-08-17T02:19:42.734Z,10.90
2022-08-17T02:22:10.598Z,11.13
2022-08-17T02:24:58.990Z,11.05
2022-08-17T02:27:26.535Z,11.18
2022-08-17T02:29:53.846Z,11.90
2022-08-17T02:32:25.465Z,11.20
2022-08-17T02:34:58.758Z,10.45
2022-08-17T02:37:27.984Z,10.25
2022-08-17T02:39:59.373Z,10.05
2022-08-17T02:42:34.639Z,11.20
2022-08-17T02:45:03.960Z,10.65
2022-08-17T02:47:31.414Z,10.23
2022-08-17T02:49:58.842Z,11.00
2022-08-17T02:52:43.442Z,10.43
2022-08-17T02:55:38.717Z,10.52
2022-08-17T02:58:07.400Z,11.07
2022-08-17T03:00:40.950Z,10.45
2022-08-17T03:03:10.841Z,10.50
2022-08-17T03:05:39.166Z,10.93
2022-08-17T03:08:07.495Z,11.15
2022-08-17T03:10:41.993Z,10.57
2022-08-17T03:13:10.188Z,10.60
2022-08-17T03:15:40.666Z,12.52
2022-08-17T03:18:20.114Z,11.52
2022-08-17T03:20:55.978Z,10.85
2022-08-17T03:23:25.435Z,10.90
2022-08-17T03:25:54.217Z,10.32
2022-08-17T03:28:22.864Z,10.93
2022-08-17T03:30:51.478Z,11.45
2022-08-17T03:33:19.526Z,11.52
2022-08-17T03:35:47.141Z,10.25
2022-08-17T03:38:17.070Z,10.82
2022-08-17T03:40:57.472Z,9.30
2022-08-17T03:43:32.162Z,9.68
2022-08-17T03:46:34.214Z,8.45
2022-08-17T03:49:25.921Z,9.65
2022-08-17T03:52:13.257Z,8.50
2022-08-17T03:55:00.333Z,9.65
2022-08-17T03:57:28.116Z,8.77
2022-08-17T03:59:55.810Z,9.20
2022-08-17T04:02:29.422Z,8.77
2022-08-17T04:04:57.934Z,8.48
2022-08-17T04:07:28.157Z,8.48
2022-08-17T04:09:55.870Z,9.07
2022-08-17T04:12:24.518Z,8.98
2022-08-17T04:14:54.708Z,9.38
2022-08-17T04:17:25.803Z,9.60
2022-08-17T04:19:53.830Z,8.95
2022-08-17T04:22:31.730Z,8.30
2022-08-17T04:25:16.081Z,8.70
2022-08-17T04:27:43.614Z,8.13
2022-08-17T04:30:11.542Z,8.18
2022-08-17T04:33:04.058Z,9.13
2022-08-17T04:35:38.438Z,8.27
2022-08-17T04:38:06.999Z,8.77
2022-08-17T04:40:53.113Z,8.45
2022-08-17T04:43:22.584Z,7.60
2022-08-17T04:45:58.905Z,8.40
2022-08-17T04:48:36.391Z,7.75
2022-08-17T04:51:09.412Z,8.57
2022-08-17T04:53:37.172Z,7.45
2022-08-17T04:56:04.715Z,7.10
2022-08-17T04:58:32.409Z,7.00
2022-08-17T05:01:00.313Z,7.75
2022-08-17T05:03:28.287Z,8.07
2022-08-17T05:05:55.797Z,7.78
2022-08-17T05:08:23.457Z,7.47
2022-08-17T05:10:51.032Z,8.00
2022-08-17T05:13:22.675Z,6.75
2022-08-17T05:15:55.456Z,7.55
2022-08-17T05:18:23.464Z,6.80
2022-08-17T05:20:52.830Z,6.90
2022-08-17T05:23:22.988Z,6.65
2022-08-17T05:25:52.834Z,7.10
2022-08-17T05:28:27.460Z,6.22
2022-08-17T05:31:01.355Z,5.78
2022-08-17T05:33:33.379Z,6.35
2022-08-17T05:36:02.324Z,5.32
2022-08-17T05:38:31.034Z,5.00
2022-08-17T05:41:00.907Z,5.45
2022-08-17T05:43:31.275Z,4.60
2022-08-17T05:46:04.795Z,5.05
2022-08-17T05:49:01.231Z,5.85
2022-08-17T05:51:53.700Z,4.75
2022-08-17T05:54:32.805Z,6.22
2022-08-17T05:57:07.709Z,5.90
2022-08-17T06:00:00.865Z,6.15
2022-08-17T06:03:11.670Z,5.43
2022-08-17T06:05:45.115Z,5.97
2022-08-17T06:08:51.719Z,6.22
2022-08-17T06:11:30.994Z,6.68
2022-08-17T06:14:19.583Z,7.55
2022-08-17T06:16:51.437Z,7.38
2022-08-17T06:19:32.913Z,7.50
2022-08-17T06:22:02.735Z,7.78
2022-08-17T06:24:38.666Z,7.00
2022-08-17T06:27:33.003Z,7.80
2022-08-17T06:30:09.114Z,8.23
2022-08-17T06:32:38.759Z,9.88
2022-08-17T06:35:09.301Z,8.75
2022-08-17T06:37:48.806Z,9.90
2022-08-17T06:40:16.264Z,10.52
2022-08-17T06:43:06.412Z,9.48
2022-08-17T06:45:43.297Z,9.57
2022-08-17T06:48:24.759Z,10.55
2022-08-17T06:51:01.431Z,11.05
2022-08-17T06:53:59.603Z,11.63
2022-08-17T06:57:14.563Z,11.07
2022-08-17T06:59:56.433Z,12.07
2022-08-17T07:03:07.039Z,12.73
2022-08-17T07:05:52.635Z,12.75
2022-08-17T07:08:34.985Z,13.30
2022-08-17T07:11:08.636Z,13.30
2022-08-17T07:13:38.687Z,14.00
2022-08-17T07:16:23.756Z,15.68
2022-08-17T07:21:43.504Z,16.00
2022-08-17T07:24:30.109Z,17.13
2022-08-17T07:27:22.420Z,15.15
2022-08-17T07:30:00.641Z,17.83
2022-08-17T07:32:35.505Z,17.05
2022-08-17T07:35:15.115Z,18.10
2022-08-17T07:37:52.999Z,19.55
2022-08-17T07:40:28.352Z,20.23
2022-08-17T07:43:18.763Z,20.58
2022-08-17T07:46:44.435Z,20.80
2022-08-17T07:49:14.407Z,22.88
2022-08-17T07:51:45.615Z,21.25
2022-08-17T07:54:15.972Z,21.13
2022-08-17T07:56:48.592Z,22.83
2022-08-17T07:59:18.245Z,20.67
2022-08-17T08:04:59.079Z,22.63
2022-08-17T08:07:20.184Z,22.45
2022-08-17T08:10:23.675Z,22.35
2022-08-17T08:13:13.022Z,20.88
2022-08-17T08:15:54.161Z,21.90
2022-08-17T08:18:38.688Z,20.65
2022-08-17T08:21:29.013Z,22.45
2022-08-17T08:24:24.575Z,23.20
2022-08-17T08:27:04.193Z,21.27
2022-08-17T08:29:46.273Z,22.13
2022-08-17T08:32:34.774Z,24.63
2022-08-17T08:35:08.194Z,24.75
2022-08-17T08:37:55.607Z,23.98
2022-08-17T08:40:40.222Z,25.60
2022-08-17T08:43:28.499Z,26.20
2022-08-17T08:46:24.951Z,26.52
2022-08-17T08:49:12.026Z,25.85
2022-08-17T08:51:57.124Z,24.52
2022-08-17T08:54:43.375Z,26.42
2022-08-17T08:57:27.785Z,25.88
2022-08-17T09:00:05.474Z,24.05
2022-08-17T09:02:52.671Z,27.38
2022-08-17T09:05:38.133Z,27.15
2022-08-17T09:08:42.679Z,23.05
2022-08-17T09:11:35.569Z,21.45
2022-08-17T09:14:32.785Z,24.20
2022-08-17T09:17:25.317Z,23.42
2022-08-17T09:19:59.968Z,23.63
2022-08-17T09:22:42.166Z,24.17
2022-08-17T09:25:23.378Z,22.67
2022-08-17T09:28:05.235Z,25.20
2022-08-17T09:30:51.655Z,23.55
2022-08-17T09:33:27.650Z,25.83
2022-08-17T09:36:25.598Z,24.25
2022-08-17T09:39:07.660Z,27.00
2022-08-17T09:41:50.881Z,26.95
2022-08-17T09:44:42.677Z,26.55
2022-08-17T09:47:32.433Z,28.38
2022-08-17T09:50:11.470Z,27.70
2022-08-17T09:52:39.187Z,26.25
2022-08-17T09:55:07.035Z,28.85
2022-08-17T09:57:40.421Z,28.25
2022-08-17T10:00:18.696Z,26.85
2022-08-17T10:03:16.350Z,26.25
2022-08-17T10:05:46.948Z,26.95
2022-08-17T10:08:43.464Z,26.35
2022-08-17T10:11:54.289Z,26.98
2022-08-17T10:14:44.428Z,28.77
2022-08-17T10:17:33.939Z,26.15
2022-08-17T10:20:05.890Z,26.92
2022-08-17T10:23:04.823Z,27.13
2022-08-17T10:25:55.438Z,28.85
2022-08-17T10:28:30.300Z,27.27
2022-08-17T10:34:18.811Z,30.13
2022-08-17T10:36:52.378Z,33.08
2022-08-17T10:39:52.610Z,32.83
2022-08-17T10:42:33.278Z,31.73
2022-08-17T10:45:39.840Z,32.92
2022-08-17T10:48:07.592Z,32.88
2022-08-17T10:50:59.939Z,32.63
2022-08-17T10:53:33.110Z,32.67
2022-08-17T10:56:12.365Z,33.53
2022-08-17T10:58:49.407Z,34.30
2022-08-17T11:01:17.956Z,33.58
2022-08-17T11:03:56.803Z,35.25
2022-08-17T11:06:41.855Z,30.50
2022-08-17T11:12:26.600Z,30.60
2022-08-17T11:15:33.017Z,32.67
2022-08-17T11:18:18.925Z,31.10
2022-08-17T11:21:17.795Z,30.42
2022-08-17T11:24:03.266Z,32.60
2022-08-17T11:26:32.238Z,32.65
2022-08-17T11:29:10.866Z,34.33
2022-08-17T11:31:43.946Z,34.53
2022-08-17T11:34:21.406Z,33.63
2022-08-17T11:37:13.775Z,33.40
2022-08-17T11:40:07.151Z,35.80
2022-08-17T11:42:46.937Z,37.65
2022-08-17T11:45:40.821Z,39.47
2022-08-17T11:49:01.820Z,40.08
2022-08-17T11:51:53.901Z,39.47
2022-08-17T11:54:33.600Z,39.95
2022-08-17T11:57:26.303Z,41.45
2022-08-17T12:00:03.255Z,41.60
2022-08-17T12:02:38.867Z,43.03
2022-08-17T12:05:16.819Z,42.53
2022-08-17T12:07:46.761Z,42.00
2022-08-17T12:10:17.670Z,42.17
2022-08-17T12:12:47.991Z,42.67
2022-08-17T12:15:24.514Z,44.92
2022-08-17T12:17:54.687Z,44.65
2022-08-17T12:20:26.134Z,46.25
2022-08-17T12:23:24.477Z,43.25
2022-08-17T12:25:59.546Z,45.55
2022-08-17T12:28:35.010Z,46.08
2022-08-17T12:31:05.972Z,46.30
2022-08-17T12:33:35.909Z,47.95
2022-08-17T12:36:07.412Z,45.72
2022-08-17T12:38:37.939Z,48.25
2022-08-17T12:41:26.368Z,49.72
2022-08-17T12:44:04.894Z,45.58
2022-08-17T12:46:44.897Z,46.65
2022-08-17T12:49:15.600Z,49.83
2022-08-17T12:51:45.474Z,48.15
2022-08-17T12:54:27.978Z,44.88
2022-08-17T12:56:56.064Z,49.25
2022-08-17T12:59:29.710Z,51.00
2022-08-17T13:01:59.249Z,52.42
2022-08-17T13:04:29.692Z,48.42
2022-08-17T13:06:59.667Z,48.83
2022-08-17T13:09:35.567Z,48.15
2022-08-17T13:12:05.030Z,47.28
2022-08-17T13:14:34.037Z,45.83
2022-08-17T13:17:06.333Z,46.80
2022-08-17T13:19:49.456Z,45.70
2022-08-17T13:22:22.292Z,46.00
2022-08-17T13:24:56.058Z,45.97
2022-08-17T13:27:25.992Z,45.67
2022-08-17T13:29:59.587Z,45.80
2022-08-17T13:32:45.115Z,44.38
2022-08-17T13:35:39.604Z,45.45
2022-08-17T13:38:17.135Z,44.17
2022-08-17T13:40:51.836Z,46.00
2022-08-17T13:43:44.869Z,46.92
2022-08-17T13:46:19.665Z,44.03
2022-08-17T13:48:57.480Z,43.38
2022-08-17T13:51:32.543Z,43.25
2022-08-17T13:54:03.840Z,42.33
2022-08-17T13:56:40.416Z,41.20
2022-08-17T13:59:15.501Z,38.90
2022-08-17T14:01:53.413Z,40.35
2022-08-17T14:04:24.841Z,36.55
2022-08-17T14:06:57.781Z,38.30
2022-08-17T14:09:38.243Z,37.35
2022-08-17T14:12:12.482Z,38.35
2022-08-17T14:14:40.738Z,36.88
2022-08-17T14:17:08.171Z,41.17
2022-08-17T14:19:36.238Z,37.72
2022-08-17T14:22:04.928Z,38.35
2022-08-17T14:24:35.371Z,36.70
2022-08-17T14:27:04.871Z,36.25
2022-08-17T14:29:34.211Z,36.15
2022-08-17T14:32:24.780Z,34.83
2022-08-17T14:34:53.132Z,36.67
2022-08-17T14:37:21.501Z,36.95
2022-08-17T14:39:48.866Z,32.42
2022-08-17T14:42:16.375Z,34.70
2022-08-17T14:44:44.619Z,32.92
2022-08-17T14:47:11.904Z,34.78
2022-08-17T14:49:39.240Z,34.05
2022-08-17T14:52:06.854Z,34.03
2022-08-17T14:54:34.758Z,33.55
2022-08-17T14:57:32.862Z,35.58
2022-08-17T14:59:55.084Z,36.05
2022-08-17T15:02:29.703Z,33.78
2022-08-17T15:05:05.975Z,34.25
2022-08-17T15:07:33.351Z,31.15
2022-08-17T15:10:01.997Z,32.63
2022-08-17T15:12:33.331Z,33.35
2022-08-17T15:15:05.630Z,33.17
2022-08-17T15:17:44.375Z,31.75
2022-08-17T15:20:15.811Z,33.20
2022-08-17T15:22:44.358Z,28.42
2022-08-17T15:25:12.396Z,31.65
2022-08-17T15:27:40.255Z,31.42
2022-08-17T15:30:09.989Z,32.17
2022-08-17T15:32:39.658Z,29.65
2022-08-17T15:35:09.102Z,30.05
2022-08-17T15:37:37.685Z,29.08
2022-08-17T15:40:07.194Z,28.60
2022-08-17T15:42:35.458Z,26.05
2022-08-17T15:45:09.342Z,24.33
2022-08-17T15:47:37.226Z,28.50
2022-08-17T15:50:06.585Z,27.90
2022-08-17T15:52:40.028Z,22.10
2022-08-17T15:55:11.872Z,25.13
2022-08-17T15:57:39.890Z,23.98
2022-08-17T16:00:08.912Z,22.38
2022-08-17T16:03:15.345Z,20.95
2022-08-17T16:05:31.287Z,21.38
2022-08-17T16:07:59.836Z,25.60
2022-08-17T16:10:34.753Z,24.77
2022-08-17T16:13:04.089Z,21.27
2022-08-17T16:15:32.152Z,19.27
2022-08-17T16:17:59.871Z,16.92
2022-08-17T16:20:27.594Z,17.67
2022-08-17T16:22:55.357Z,16.13
2022-08-17T16:25:49.689Z,16.63
2022-08-17T16:28:16.692Z,17.40
2022-08-17T16:30:44.250Z,18.20
2022-08-17T16:33:12.251Z,19.55
2022-08-17T16:35:39.833Z,18.52
2022-08-17T16:38:07.454Z,15.23
2022-08-17T16:40:36.412Z,16.95
2022-08-17T16:43:10.304Z,14.30
2022-08-17T16:45:40.373Z,17.17
2022-08-17T16:48:09.457Z,16.00
2022-08-17T16:50:37.230Z,14.98
2022-08-17T16:53:09.004Z,15.70
2022-08-17T16:55:36.730Z,15.95
2022-08-17T16:58:06.037Z,15.80
2022-08-17T17:00:34.119Z,14.48
2022-08-17T17:03:19.252Z,13.93
2022-08-17T17:06:09.116Z,14.25
2022-08-17T17:08:44.648Z,13.68
2022-08-17T17:11:40.366Z,13.23
2022-08-17T17:14:13.036Z,12.73
2022-08-17T17:17:03.718Z,13.75
2022-08-17T17:19:42.973Z,12.43
2022-08-17T17:22:35.933Z,12.57
2022-08-17T17:25:06.369Z,12.55
2022-08-17T17:28:10.975Z,12.50
2022-08-17T17:31:03.233Z,12.80
2022-08-17T17:33:48.224Z,12.57
2022-08-17T17:39:05.236Z,11.90
2022-08-17T17:44:12.234Z,15.35
2022-08-17T17:46:45.639Z,14.82
2022-08-17T17:49:16.193Z,14.93
2022-08-17T17:52:11.033Z,15.00
2022-08-17T17:55:05.882Z,16.02
2022-08-17T17:57:55.769Z,15.63
2022-08-17T18:00:34.423Z,14.55
2022-08-17T18:03:26.178Z,16.35
2022-08-17T18:06:00.672Z,15.02
2022-08-17T18:08:34.732Z,14.10
2022-08-17T18:11:11.406Z,13.40
2022-08-17T18:14:03.772Z,19.25
2022-08-17T18:16:32.878Z,14.75
2022-08-17T18:19:00.543Z,15.27
2022-08-17T18:21:43.927Z,18.23
2022-08-17T18:24:12.482Z,19.13
2022-08-17T18:26:46.122Z,20.65
2022-08-17T18:29:13.394Z,19.75
2022-08-17T18:31:40.791Z,20.73
2022-08-17T18:34:47.242Z,20.63
2022-08-17T18:37:16.111Z,22.60
2022-08-17T18:39:47.062Z,22.20
2022-08-17T18:42:27.373Z,22.67
2022-08-17T18:44:55.658Z,22.70
2022-08-17T18:47:26.860Z,24.33
2022-08-17T18:49:57.664Z,24.17
2022-08-17T18:52:31.671Z,24.20
2022-08-17T18:55:22.194Z,24.55
2022-08-17T18:57:53.822Z,25.70
2022-08-17T19:00:40.605Z,25.77
2022-08-17T19:03:19.923Z,25.58
2022-08-17T19:05:56.604Z,25.58
2022-08-17T19:08:34.306Z,27.17
2022-08-17T19:11:07.355Z,26.85
2022-08-17T19:13:58.219Z,27.88
2022-08-17T19:16:46.564Z,27.75
2022-08-17T19:19:41.632Z,27.98
2022-08-17T19:22:13.671Z,28.08
2022-08-17T19:25:02.793Z,27.92
2022-08-17T19:27:57.355Z,29.45
2022-08-17T19:30:25.735Z,28.88
2022-08-17T19:32:54.280Z,29.45
2022-08-17T19:35:30.499Z,31.35
2022-08-17T19:38:12.719Z,30.73
2022-08-17T19:40:54.473Z,29.77
2022-08-17T19:43:43.406Z,31.77
2022-08-17T19:46:19.419Z,32.22
2022-08-17T19:49:00.205Z,30.02
2022-08-17T19:51:40.547Z,30.40
2022-08-17T19:54:33.612Z,32.65
2022-08-17T19:57:12.169Z,33.08
2022-08-17T20:00:08.885Z,34.33
2022-08-17T20:02:55.104Z,34.35
2022-08-17T20:05:22.479Z,35.90
2022-08-17T20:07:59.118Z,37.10
2022-08-17T20:11:01.304Z,38.22
2022-08-17T20:13:40.215Z,37.40
2022-08-17T20:16:09.980Z,39.38
2022-08-17T20:18:48.829Z,40.08
2022-08-17T20:21:30.095Z,39.55
2022-08-17T20:24:12.955Z,39.35
2022-08-17T20:26:58.537Z,41.45
2022-08-17T20:29:53.847Z,40.55
2022-08-17T20:32:26.802Z,40.60
2022-08-17T20:35:06.112Z,41.75
2022-08-17T20:37:35.613Z,42.53
2022-08-17T20:40:08.368Z,41.53
2022-08-17T20:42:36.731Z,42.53
2022-08-17T20:45:25.856Z,43.90
2022-08-17T20:48:26.090Z,42.63
2022-08-17T20:50:55.766Z,45.63
2022-08-17T20:58:45.067Z,45.95
2022-08-17T21:01:20.325Z,48.30
2022-08-17T21:03:51.898Z,48.42
2022-08-17T21:06:21.953Z,48.42
2022-08-17T21:08:54.051Z,50.67
2022-08-17T21:12:03.909Z,48.35
2022-08-17T21:15:03.421Z,56.45
2022-08-17T21:18:00.627Z,54.58
2022-08-17T21:21:00.572Z,57.22
2022-08-17T21:23:54.880Z,61.65
2022-08-17T21:26:50.610Z,61.45
2022-08-17T21:29:33.769Z,61.20
2022-08-17T21:32:01.591Z,66.45
2022-08-17T21:34:43.592Z,64.28
2022-08-17T21:37:20.223Z,65.85
2022-08-17T21:39:55.802Z,66.75
2022-08-17T21:42:29.492Z,64.78
2022-08-17T21:45:01.423Z,64.60
2022-08-17T21:47:30.759Z,65.00
2022-08-17T21:50:18.639Z,64.28
2022-08-17T21:52:47.098Z,65.63
2022-08-17T21:55:28.133Z,65.53
2022-08-17T21:58:14.616Z,66.75
2022-08-17T22:00:45.882Z,66.60
2022-08-17T22:03:25.895Z,65.55
2022-08-17T22:05:53.179Z,67.85
2022-08-17T22:08:24.020Z,66.57
2022-08-17T22:11:01.797Z,67.30
2022-08-17T22:13:29.556Z,65.90
2022-08-17T22:16:29.504Z,66.38
2022-08-17T22:18:59.154Z,66.43
2022-08-17T22:21:26.964Z,69.90
2022-08-17T22:24:06.943Z,70.82
2022-08-17T22:27:02.109Z,69.93
2022-08-17T22:29:53.246Z,70.30
2022-08-17T22:32:31.081Z,68.10
2022-08-17T22:35:36.983Z,67.75
2022-08-17T22:40:52.280Z,66.80
2022-08-17T22:43:28.522Z,72.85
2022-08-17T22:46:00.228Z,71.75
2022-08-17T22:48:31.118Z,74.93
2022-08-17T22:51:12.566Z,74.78
2022-08-17T22:54:15.396Z,74.18
2022-08-17T22:57:18.685Z,71.03
2022-08-17T22:59:52.726Z,72.47
2022-08-17T23:02:24.157Z,74.75
2022-08-17T23:05:10.011Z,73.47
2022-08-17T23:07:37.457Z,72.03
2022-08-17T23:10:09.457Z,73.63
2022-08-17T23:12:39.611Z,72.82
2022-08-17T23:15:15.449Z,74.68
2022-08-17T23:17:44.483Z,71.00
2022-08-17T23:20:15.061Z,72.05
2022-08-17T23:22:44.674Z,72.90
2022-08-17T23:25:32.360Z,73.05
2022-08-17T23:28:03.794Z,72.15
2022-08-17T23:30:34.586Z,73.25
2022-08-17T23:33:14.271Z,70.72
2022-08-17T23:35:42.836Z,69.13
2022-08-17T23:38:12.189Z,71.30
2022-08-17T23:40:40.848Z,72.03
2022-08-17T23:43:17.406Z,70.28
2022-08-17T23:45:57.383Z,68.68
2022-08-17T23:48:35.056Z,71.30
2022-08-17T23:51:17.347Z,68.22
2022-08-17T23:53:48.127Z,68.28
2022-08-17T23:56:17.798Z,70.05
2022-08-17T23:58:45.101Z,70.25
